Station Historical Data
Daily Summary for January 6, 2017 Units:  English    Metric   Both
Next Day »
Daily Weekly Monthly Yearly Custom
  High: Low: Average:
Temperature: 41.1 °F 30.3 °F 35.4 °F
Dew Point: 37.4 °F 25.1 °F 30.7 °F
Humidity: 92% 71% 83%
Wind Speed: 16.0mph 0.0mph 2.7mph
Wind Gust: 22.0mph - -
Wind- - ESE
Pressure: 30.24 in 30.14 in -
Precipitation: 0.00 in    
Historical Graphs
 
 
Tabular Data for January 6, 2017
Time Temperature Dew Point Pressure Wind Wind Speed Wind Gust Humidity Rainfall Rate (Hourly) solar Conditions
00:04 31.6 °F 28.2 °F 30.14 in Calm   15.0 mph 87% 0.00 in 0.00 W/m2
00:09 31.6 °F 28.2 °F 30.14 in ESE 6.0 mph 20.0 mph 87% 0.00 in 0.00 W/m2
00:14 31.6 °F 28.2 °F 30.14 in ESE 13.0 mph 13.0 mph 87% 0.00 in 0.00 W/m2
00:19 31.6 °F 28.2 °F 30.14 in East 9.0 mph 18.0 mph 87% 0.00 in 0.00 W/m2
00:25 31.6 °F 28.2 °F 30.14 in ESE 12.0 mph 20.0 mph 87% 0.00 in 0.00 W/m2
00:30 31.6 °F 27.9 °F 30.14 in East 7.0 mph 15.0 mph 86% 0.00 in 0.00 W/m2
00:35 31.6 °F 27.9 °F 30.15 in ESE 8.0 mph 12.0 mph 86% 0.00 in 0.00 W/m2
00:40 31.7 °F 28.0 °F 30.15 in ESE 9.0 mph 16.0 mph 86% 0.00 in 0.00 W/m2
00:45 31.6 °F 27.9 °F 30.15 in Calm   15.0 mph 86% 0.00 in 0.00 W/m2
00:50 31.6 °F 27.6 °F 30.16 in East 6.0 mph 15.0 mph 85% 0.00 in 0.00 W/m2
00:55 31.6 °F 29.5 °F 30.15 in ESE 11.0 mph 18.0 mph 92% 0.00 in 0.00 W/m2
01:00 31.6 °F 27.6 °F 30.15 in ESE 5.0 mph 16.0 mph 85% 0.00 in 0.00 W/m2
01:05 31.6 °F 27.3 °F 30.15 in ESE 2.0 mph 16.0 mph 84% 0.00 in 0.00 W/m2
01:10 31.6 °F 27.3 °F 30.15 in East 8.0 mph 15.0 mph 84% 0.00 in 0.00 W/m2
01:15 31.7 °F 27.7 °F 30.16 in East 14.0 mph 21.0 mph 85% 0.00 in 0.00 W/m2
01:20 31.6 °F 27.6 °F 30.16 in East 11.0 mph 19.0 mph 85% 0.00 in 0.00 W/m2
01:25 31.6 °F 27.3 °F 30.15 in ESE 5.0 mph 18.0 mph 84% 0.00 in 0.00 W/m2
01:30 31.7 °F 27.4 °F 30.15 in ESE 6.0 mph 18.0 mph 84% 0.00 in 0.00 W/m2
01:35 31.7 °F 27.4 °F 30.16 in ESE 1.0 mph 18.0 mph 84% 0.00 in 0.00 W/m2
01:40 31.7 °F 27.4 °F 30.16 in ESE 7.0 mph 18.0 mph 84% 0.00 in 0.00 W/m2
01:45 31.8 °F 27.2 °F 30.16 in East 8.0 mph 19.0 mph 83% 0.00 in 0.00 W/m2
01:50 31.7 °F 27.1 °F 30.16 in ESE 12.0 mph 19.0 mph 83% 0.00 in 0.00 W/m2
01:55 31.7 °F 27.1 °F 30.16 in ESE 8.0 mph 20.0 mph 83% 0.00 in 0.00 W/m2
02:00 31.7 °F 26.8 °F 30.16 in East 6.0 mph 22.0 mph 82% 0.00 in 0.00 W/m2
02:05 31.7 °F 26.8 °F 30.17 in East 5.0 mph 20.0 mph 82% 0.00 in 0.00 W/m2
02:10 31.7 °F 26.8 °F 30.17 in East 13.0 mph 21.0 mph 82% 0.00 in 0.00 W/m2
02:15 31.7 °F 26.8 °F 30.17 in East 11.0 mph 15.0 mph 82% 0.00 in 0.00 W/m2
02:20 31.7 °F 26.8 °F 30.17 in East 7.0 mph 18.0 mph 82% 0.00 in 0.00 W/m2
02:25 31.6 °F 26.8 °F 30.17 in East 7.0 mph 20.0 mph 82% 0.00 in 0.00 W/m2
02:30 31.6 °F 26.8 °F 30.17 in East 6.0 mph 16.0 mph 82% 0.00 in 0.00 W/m2
02:35 31.6 °F 27.0 °F 30.17 in East 7.0 mph 16.0 mph 83% 0.00 in 0.00 W/m2
02:40 31.5 °F 26.9 °F 30.17 in East 12.0 mph 15.0 mph 83% 0.00 in 0.00 W/m2
02:45 31.5 °F 26.6 °F 30.17 in East 6.0 mph 16.0 mph 82% 0.00 in 0.00 W/m2
02:50 31.4 °F 26.8 °F 30.17 in East 6.0 mph 16.0 mph 83% 0.00 in 0.00 W/m2
02:55 31.4 °F 26.8 °F 30.17 in ESE 5.0 mph 15.0 mph 83% 0.00 in 0.00 W/m2
03:00 31.4 °F 26.8 °F 30.16 in ESE 5.0 mph 18.0 mph 83% 0.00 in 0.00 W/m2
03:05 31.3 °F 26.8 °F 30.16 in ESE 2.0 mph 19.0 mph 83% 0.00 in 0.00 W/m2
03:10 31.3 °F 26.5 °F 30.16 in East 2.0 mph 19.0 mph 82% 0.00 in 0.00 W/m2
03:16 31.3 °F 26.2 °F 30.16 in East 3.0 mph 18.0 mph 81% 0.00 in 0.00 W/m2
03:21 31.3 °F 26.2 °F 30.16 in East 7.0 mph 18.0 mph 81% 0.00 in 0.00 W/m2
03:26 31.4 °F 26.2 °F 30.16 in East 8.0 mph 19.0 mph 81% 0.00 in 0.00 W/m2
03:31 31.4 °F 26.2 °F 30.16 in ENE 7.0 mph 18.0 mph 81% 0.00 in 0.00 W/m2
03:36 31.4 °F 26.2 °F 30.15 in ESE 13.0 mph 21.0 mph 81% 0.00 in 0.00 W/m2
03:41 31.3 °F 26.5 °F 30.15 in East 7.0 mph 18.0 mph 82% 0.00 in 0.00 W/m2
03:46 31.3 °F 26.2 °F 30.15 in East 8.0 mph 18.0 mph 81% 0.00 in 0.00 W/m2
03:51 31.2 °F 26.1 °F 30.15 in East 5.0 mph 15.0 mph 81% 0.00 in 0.00 W/m2
03:56 31.2 °F 25.8 °F 30.15 in East 8.0 mph 15.0 mph 80% 0.00 in 0.00 W/m2
04:01 31.2 °F 26.1 °F 30.15 in ESE 14.0 mph 14.0 mph 81% 0.00 in 0.00 W/m2
04:06 31.2 °F 26.1 °F 30.15 in Calm   14.0 mph 81% 0.00 in 0.00 W/m2
04:11 31.2 °F 26.1 °F 30.15 in East 2.0 mph 15.0 mph 81% 0.00 in 0.00 W/m2
04:16 31.1 °F 26.3 °F 30.15 in East 11.0 mph 16.0 mph 82% 0.00 in 0.00 W/m2
04:21 31.1 °F 26.3 °F 30.15 in East 6.0 mph 15.0 mph 82% 0.00 in 0.00 W/m2
04:26 31.0 °F 26.2 °F 30.15 in East 6.0 mph 16.0 mph 82% 0.00 in 0.00 W/m2
04:31 30.9 °F 25.8 °F 30.15 in East 6.0 mph 13.0 mph 81% 0.00 in 0.00 W/m2
04:36 30.9 °F 26.1 °F 30.15 in East 8.0 mph 12.0 mph 82% 0.00 in 0.00 W/m2
04:41 30.9 °F 26.4 °F 30.15 in East 3.0 mph 14.0 mph 83% 0.00 in 0.00 W/m2
04:46 30.8 °F 26.3 °F 30.16 in East 7.0 mph 14.0 mph 83% 0.00 in 0.00 W/m2
04:51 30.8 °F 26.0 °F 30.16 in Calm     82% 0.00 in 0.00 W/m2
04:56 30.7 °F 25.9 °F 30.16 in East 5.0 mph 5.0 mph 82% 0.00 in 0.00 W/m2
05:01 30.7 °F 25.9 °F 30.16 in Calm     82% 0.00 in 0.00 W/m2
05:06 30.7 °F 26.2 °F 30.16 in Calm   1.0 mph 83% 0.00 in 0.00 W/m2
05:11 30.7 °F 26.2 °F 30.16 in East 6.0 mph 8.0 mph 83% 0.00 in 0.00 W/m2
05:16 30.6 °F 26.1 °F 30.16 in Calm   1.0 mph 83% 0.00 in 0.00 W/m2
05:21 30.6 °F 26.1 °F 30.16 in ESE 2.0 mph 8.0 mph 83% 0.00 in 0.00 W/m2
05:26 30.5 °F 25.7 °F 30.16 in East 4.0 mph 8.0 mph 82% 0.00 in 0.00 W/m2
05:31 30.5 °F 26.0 °F 30.16 in East 5.0 mph 6.0 mph 83% 0.00 in 0.00 W/m2
05:36 30.5 °F 25.7 °F 30.16 in East 5.0 mph 8.0 mph 82% 0.00 in 0.00 W/m2
05:41 30.4 °F 25.3 °F 30.16 in East 6.0 mph 12.0 mph 81% 0.00 in 0.00 W/m2
05:46 30.5 °F 25.7 °F 30.16 in ESE 8.0 mph 13.0 mph 82% 0.00 in 0.00 W/m2
05:51 30.5 °F 25.7 °F 30.15 in ESE 5.0 mph 8.0 mph 82% 0.00 in 0.00 W/m2
05:56 30.5 °F 25.7 °F 30.15 in ESE 2.0 mph 8.0 mph 82% 0.00 in 0.00 W/m2
06:01 30.5 °F 25.4 °F 30.15 in East 6.0 mph 14.0 mph 81% 0.00 in 0.00 W/m2
06:06 30.5 °F 25.4 °F 30.16 in East 11.0 mph 12.0 mph 81% 0.00 in 0.00 W/m2
06:11 30.5 °F 25.4 °F 30.16 in East 5.0 mph 8.0 mph 81% 0.00 in 0.00 W/m2
06:16 30.5 °F 25.1 °F 30.16 in East 8.0 mph 8.0 mph 80% 0.00 in 0.00 W/m2
06:21 30.5 °F 25.1 °F 30.16 in East 5.0 mph 6.0 mph 80% 0.00 in 0.00 W/m2
06:26 30.6 °F 25.8 °F 30.17 in ESE 4.0 mph 7.0 mph 82% 0.00 in 0.00 W/m2
06:31 30.5 °F 25.4 °F 30.16 in ESE 1.0 mph 1.0 mph 81% 0.00 in 0.00 W/m2
06:36 30.5 °F 25.7 °F 30.16 in ESE 8.0 mph 8.0 mph 82% 0.00 in 0.00 W/m2
06:41 30.5 °F 26.0 °F 30.16 in Calm   2.0 mph 83% 0.00 in 0.00 W/m2
06:46 30.5 °F 25.7 °F 30.17 in ESE 4.0 mph 5.0 mph 82% 0.00 in 0.00 W/m2
06:51 30.4 °F 25.6 °F 30.17 in ESE 8.0 mph 9.0 mph 82% 0.00 in 0.00 W/m2
06:56 30.4 °F 25.9 °F 30.18 in East 6.0 mph 8.0 mph 83% 0.00 in 0.00 W/m2
07:01 30.3 °F 25.8 °F 30.17 in East 1.0 mph 8.0 mph 83% 0.00 in 0.00 W/m2
07:06 30.3 °F 25.8 °F 30.17 in ESE 4.0 mph 11.0 mph 83% 0.00 in 0.00 W/m2
07:11 30.3 °F 26.1 °F 30.17 in ESE 4.0 mph 11.0 mph 84% 0.00 in 5.00 W/m2
07:16 30.3 °F 26.1 °F 30.18 in ESE 7.0 mph 9.0 mph 84% 0.00 in 9.00 W/m2
07:21 30.4 °F 25.9 °F 30.18 in ESE 4.0 mph 12.0 mph 83% 0.00 in 7.00 W/m2
07:27 30.4 °F 25.6 °F 30.18 in Calm   1.0 mph 82% 0.00 in 7.00 W/m2
07:32 30.4 °F 25.9 °F 30.18 in East 1.0 mph 9.0 mph 83% 0.00 in 11.00 W/m2
07:37 30.5 °F 25.7 °F 30.18 in East 12.0 mph 12.0 mph 82% 0.00 in 14.00 W/m2
07:42 30.5 °F 25.7 °F 30.19 in ESE 4.0 mph 11.0 mph 82% 0.00 in 18.00 W/m2
07:47 30.6 °F 25.8 °F 30.19 in Calm   12.0 mph 82% 0.00 in 23.00 W/m2
07:52 30.6 °F 25.5 °F 30.18 in East 4.0 mph 15.0 mph 81% 0.00 in 28.00 W/m2
07:57 30.6 °F 25.5 °F 30.19 in East 5.0 mph 7.0 mph 81% 0.00 in 35.00 W/m2
08:02 30.7 °F 25.3 °F 30.19 in ESE 9.0 mph 9.0 mph 80% 0.00 in 37.00 W/m2
08:07 30.8 °F 25.1 °F 30.19 in ESE 7.0 mph 13.0 mph 79% 0.00 in 39.00 W/m2
08:12 30.8 °F 25.4 °F 30.19 in East 16.0 mph 18.0 mph 80% 0.00 in 65.00 W/m2
08:17 31.0 °F 25.6 °F 30.20 in Calm   12.0 mph 80% 0.00 in 77.00 W/m2
08:22 31.1 °F 25.4 °F 30.20 in East 8.0 mph 15.0 mph 79% 0.00 in 88.00 W/m2
08:27 31.2 °F 25.5 °F 30.20 in East 13.0 mph 13.0 mph 79% 0.00 in 107.00 W/m2
08:32 31.3 °F 25.6 °F 30.20 in East 2.0 mph 11.0 mph 79% 0.00 in 88.00 W/m2
08:37 31.4 °F 25.6 °F 30.20 in East 8.0 mph 13.0 mph 79% 0.00 in 67.00 W/m2
08:42 31.5 °F 25.4 °F 30.20 in ESE 9.0 mph 18.0 mph 78% 0.00 in 104.00 W/m2
08:47 31.6 °F 25.9 °F 30.20 in East 6.0 mph 14.0 mph 79% 0.00 in 107.00 W/m2
08:52 31.7 °F 26.2 °F 30.20 in ESE 16.0 mph 16.0 mph 80% 0.00 in 162.00 W/m2
08:57 31.8 °F 26.0 °F 30.20 in East 1.0 mph 13.0 mph 79% 0.00 in 130.00 W/m2
09:02 31.8 °F 26.0 °F 30.20 in East 8.0 mph 12.0 mph 79% 0.00 in 144.00 W/m2
09:07 31.9 °F 26.1 °F 30.21 in East 12.0 mph 12.0 mph 79% 0.00 in 134.00 W/m2
09:12 32.0 °F 26.5 °F 30.21 in East 5.0 mph 12.0 mph 80% 0.00 in 139.00 W/m2
09:17 32.1 °F 26.0 °F 30.21 in East 11.0 mph 12.0 mph 78% 0.00 in 160.00 W/m2
09:22 32.1 °F 26.3 °F 30.21 in Calm   1.0 mph 79% 0.00 in 204.00 W/m2
09:27 32.3 °F 26.8 °F 30.22 in Calm   1.0 mph 80% 0.00 in 158.00 W/m2
09:32 32.4 °F 26.9 °F 30.21 in Calm   1.0 mph 80% 0.00 in 183.00 W/m2
09:37 32.5 °F 27.0 °F 30.21 in Calm   1.0 mph 80% 0.00 in 111.00 W/m2
09:42 32.6 °F 27.1 °F 30.21 in Calm   11.0 mph 80% 0.00 in 178.00 W/m2
09:47 32.7 °F 27.2 °F 30.21 in Calm   11.0 mph 80% 0.00 in 199.00 W/m2
09:52 32.8 °F 27.6 °F 30.22 in Calm   1.0 mph 81% 0.00 in 185.00 W/m2
09:57 33.0 °F 26.9 °F 30.22 in Calm   13.0 mph 78% 0.00 in 167.00 W/m2
10:02 33.1 °F 27.0 °F 30.22 in Calm   1.0 mph 78% 0.00 in 142.00 W/m2
10:07 33.2 °F 27.4 °F 30.22 in Calm   1.0 mph 79% 0.00 in 190.00 W/m2
10:12 33.4 °F 27.6 °F 30.22 in Calm   1.0 mph 79% 0.00 in 149.00 W/m2
10:17 33.5 °F 27.7 °F 30.23 in Calm   1.0 mph 79% 0.00 in 418.00 W/m2
10:22 33.7 °F 28.2 °F 30.23 in Calm   1.0 mph 80% 0.00 in 446.00 W/m2
10:27 33.8 °F 28.3 °F 30.24 in Calm     80% 0.00 in 339.00 W/m2
10:32 34.1 °F 28.6 °F 30.24 in East 1.0 mph 1.0 mph 80% 0.00 in 346.00 W/m2
10:37 34.2 °F 29.0 °F 30.24 in Calm   1.0 mph 81% 0.00 in 401.00 W/m2
10:42 34.6 °F 28.8 °F 30.24 in Calm   1.0 mph 79% 0.00 in 387.00 W/m2
10:47 34.9 °F 28.8 °F 30.24 in ESE 1.0 mph 1.0 mph 78% 0.00 in 341.00 W/m2
10:52 35.2 °F 28.7 °F 30.24 in ESE 1.0 mph 1.0 mph 77% 0.00 in 360.00 W/m2
10:57 35.6 °F 30.0 °F 30.24 in Calm   1.0 mph 80% 0.00 in 373.00 W/m2
11:02 36.0 °F 30.4 °F 30.24 in Calm     80% 0.00 in 334.00 W/m2
11:07 36.2 °F 30.6 °F 30.24 in Calm     80% 0.00 in 364.00 W/m2
11:12 36.5 °F 29.7 °F 30.24 in Calm     76% 0.00 in 538.00 W/m2
11:17 36.9 °F 30.0 °F 30.24 in Calm     76% 0.00 in 499.00 W/m2
11:22 37.2 °F 29.4 °F 30.24 in Calm     73% 0.00 in 545.00 W/m2
11:27 37.5 °F 29.6 °F 30.24 in SE 1.0 mph 1.0 mph 73% 0.00 in 301.00 W/m2
11:32 37.7 °F 29.5 °F 30.23 in Calm   1.0 mph 72% 0.00 in 541.00 W/m2
11:37 38.1 °F 30.6 °F 30.23 in Calm   9.0 mph 74% 0.00 in 452.00 W/m2
11:42 38.4 °F 30.9 °F 30.23 in Calm   1.0 mph 74% 0.00 in 541.00 W/m2
11:48 38.7 °F 31.5 °F 30.23 in SSW 1.0 mph 1.0 mph 75% 0.00 in 401.00 W/m2
11:53 38.8 °F 31.6 °F 30.22 in SE 4.0 mph 12.0 mph 75% 0.00 in 236.00 W/m2
11:58 39.0 °F 31.8 °F 30.22 in South 1.0 mph 2.0 mph 75% 0.00 in 635.00 W/m2
12:03 39.2 °F 31.6 °F 30.22 in Calm   1.0 mph 74% 0.00 in 499.00 W/m2
12:08 39.3 °F 32.7 °F 30.22 in Calm   1.0 mph 77% 0.00 in 575.00 W/m2
12:13 39.4 °F 32.8 °F 30.21 in Calm   9.0 mph 77% 0.00 in 568.00 W/m2
12:18 39.4 °F 32.8 °F 30.21 in Calm   1.0 mph 77% 0.00 in 601.00 W/m2
12:23 39.5 °F 32.2 °F 30.21 in SSE 9.0 mph 11.0 mph 75% 0.00 in 589.00 W/m2
12:28 39.7 °F 32.1 °F 30.20 in SSE 1.0 mph 5.0 mph 74% 0.00 in 485.00 W/m2
12:33 39.8 °F 32.2 °F 30.20 in Calm   1.0 mph 74% 0.00 in 490.00 W/m2
12:38 39.8 °F 32.2 °F 30.20 in SSE 4.0 mph 13.0 mph 74% 0.00 in 571.00 W/m2
12:43 40.0 °F 32.1 °F 30.20 in SSE 9.0 mph 11.0 mph 73% 0.00 in 455.00 W/m2
12:48 40.1 °F 31.8 °F 30.20 in SE 6.0 mph 9.0 mph 72% 0.00 in 308.00 W/m2
12:53 40.2 °F 32.6 °F 30.20 in South 8.0 mph 11.0 mph 74% 0.00 in 603.00 W/m2
12:58 40.3 °F 32.3 °F 30.19 in Calm   1.0 mph 73% 0.00 in 547.00 W/m2
13:03 40.4 °F 32.1 °F 30.19 in SE 6.0 mph 6.0 mph 72% 0.00 in 529.00 W/m2
13:08 40.6 °F 32.6 °F 30.19 in ESE 11.0 mph 11.0 mph 73% 0.00 in 538.00 W/m2
13:13 40.7 °F 33.1 °F 30.19 in SSE 7.0 mph 10.0 mph 74% 0.00 in 561.00 W/m2
13:18 40.7 °F 32.4 °F 30.19 in South 1.0 mph 1.0 mph 72% 0.00 in 185.00 W/m2
13:23 40.7 °F 32.0 °F 30.19 in Calm   1.0 mph 71% 0.00 in 172.00 W/m2
13:28 40.8 °F 32.5 °F 30.19 in Calm   1.0 mph 72% 0.00 in 255.00 W/m2
13:29 40.8 °F 32.5 °F 30.19 in Calm   1.0 mph 72% 0.00 in 214.00 W/m2
13:34 40.8 °F 32.8 °F 30.18 in Calm   1.0 mph 73% 0.00 in 223.00 W/m2
13:39 40.8 °F 33.2 °F 30.17 in Calm   1.0 mph 74% 0.00 in 265.00 W/m2
13:44 40.7 °F 32.7 °F 30.17 in Calm   1.0 mph 73% 0.00 in 306.00 W/m2
13:49 40.7 °F 33.1 °F 30.17 in Calm     74% 0.00 in 466.00 W/m2
13:54 40.7 °F 33.4 °F 30.17 in South 1.0 mph 1.0 mph 75% 0.00 in 441.00 W/m2
13:59 40.7 °F 32.7 °F 30.17 in Calm   1.0 mph 73% 0.00 in 427.00 W/m2
14:04 40.8 °F 32.5 °F 30.16 in South 1.0 mph 1.0 mph 72% 0.00 in 422.00 W/m2
14:09 40.9 °F 32.6 °F 30.16 in Calm   1.0 mph 72% 0.00 in 408.00 W/m2
14:14 41.0 °F 33.0 °F 30.16 in Calm   1.0 mph 73% 0.00 in 313.00 W/m2
14:19 41.1 °F 33.1 °F 30.15 in Calm     73% 0.00 in 348.00 W/m2
14:24 41.1 °F 33.1 °F 30.15 in Calm   1.0 mph 73% 0.00 in 292.00 W/m2
14:29 41.1 °F 33.5 °F 30.15 in Calm     74% 0.00 in 250.00 W/m2
14:34 41.1 °F 33.8 °F 30.15 in Calm     75% 0.00 in 127.00 W/m2
14:39 41.1 °F 33.8 °F 30.15 in Calm     75% 0.00 in 149.00 W/m2
14:44 41.1 °F 34.1 °F 30.15 in Calm     76% 0.00 in 162.00 W/m2
14:49 41.1 °F 33.8 °F 30.15 in Calm     75% 0.00 in 149.00 W/m2
14:54 41.0 °F 34.0 °F 30.15 in Calm     76% 0.00 in 134.00 W/m2
14:59 41.0 °F 34.3 °F 30.16 in Calm     77% 0.00 in 116.00 W/m2
15:04 41.1 °F 34.8 °F 30.16 in Calm     78% 0.00 in 111.00 W/m2
15:09 41.0 °F 34.3 °F 30.16 in Calm     77% 0.00 in 100.00 W/m2
15:14 41.0 °F 33.7 °F 30.17 in Calm     75% 0.00 in 107.00 W/m2
15:19 41.0 °F 34.7 °F 30.17 in Calm     78% 0.00 in 102.00 W/m2
15:24 41.0 °F 35.6 °F 30.16 in Calm     81% 0.00 in 90.00 W/m2
15:29 40.9 °F 35.5 °F 30.16 in Calm     81% 0.00 in 79.00 W/m2
15:34 40.7 °F 35.6 °F 30.15 in Calm     82% 0.00 in 67.00 W/m2
15:39 40.5 °F 35.5 °F 30.15 in Calm     82% 0.00 in 60.00 W/m2
15:44 40.3 °F 35.2 °F 30.16 in Calm     82% 0.00 in 63.00 W/m2
15:49 40.2 °F 35.8 °F 30.16 in Calm     84% 0.00 in 69.00 W/m2
15:54 40.0 °F 35.6 °F 30.17 in Calm     84% 0.00 in 67.00 W/m2
15:59 39.8 °F 35.4 °F 30.17 in Calm     84% 0.00 in 53.00 W/m2
16:04 39.8 °F 35.7 °F 30.16 in Calm     85% 0.00 in 46.00 W/m2
16:09 39.7 °F 35.9 °F 30.16 in Calm     86% 0.00 in 39.00 W/m2
16:14 39.6 °F 35.8 °F 30.16 in Calm     86% 0.00 in 33.00 W/m2
16:19 39.5 °F 37.4 °F 30.17 in Calm     92% 0.00 in 26.00 W/m2
16:24 39.4 °F 36.2 °F 30.17 in Calm     88% 0.00 in 21.00 W/m2
16:29 39.3 °F 36.0 °F 30.17 in Calm     88% 0.00 in 14.00 W/m2
16:34 39.1 °F 35.8 °F 30.16 in Calm     88% 0.00 in 12.00 W/m2
16:39 39.0 °F 36.0 °F 30.16 in Calm     89% 0.00 in 14.00 W/m2
16:44 38.9 °F 35.7 °F 30.16 in Calm     88% 0.00 in 12.00 W/m2
16:49 38.8 °F 35.6 °F 30.16 in Calm     88% 0.00 in 7.00 W/m2
16:54 38.8 °F 35.6 °F 30.17 in Calm     88% 0.00 in 0.00 W/m2
16:59 38.7 °F 35.7 °F 30.17 in Calm     89% 0.00 in 0.00 W/m2
17:04 38.7 °F 35.7 °F 30.17 in Calm     89% 0.00 in 0.00 W/m2
17:09 38.6 °F 35.6 °F 30.17 in Calm     89% 0.00 in 0.00 W/m2
17:14 38.6 °F 35.6 °F 30.18 in Calm     89% 0.00 in 0.00 W/m2
17:19 38.4 °F 35.5 °F 30.17 in Calm     89% 0.00 in 0.00 W/m2
17:24 38.3 °F 35.3 °F 30.17 in Calm     89% 0.00 in 0.00 W/m2
17:29 38.2 °F 35.2 °F 30.17 in Calm     89% 0.00 in 0.00 W/m2
17:34 38.0 °F 35.0 °F 30.17 in Calm     89% 0.00 in 0.00 W/m2
17:39 38.0 °F 35.0 °F 30.17 in Calm     89% 0.00 in 0.00 W/m2
17:44 37.9 °F 35.0 °F 30.17 in Calm     89% 0.00 in 0.00 W/m2
17:49 37.9 °F 35.2 °F 30.17 in Calm     90% 0.00 in 0.00 W/m2
17:54 37.9 °F 35.2 °F 30.17 in Calm     90% 0.00 in 0.00 W/m2
17:59 37.9 °F 35.2 °F 30.17 in Calm     90% 0.00 in 0.00 W/m2
18:05 37.9 °F 35.2 °F 30.18 in Calm     90% 0.00 in 0.00 W/m2
18:10 37.8 °F 35.1 °F 30.18 in Calm     90% 0.00 in 0.00 W/m2
18:15 37.8 °F 35.1 °F 30.18 in Calm     90% 0.00 in 0.00 W/m2
18:20 37.8 °F 35.1 °F 30.18 in Calm     90% 0.00 in 0.00 W/m2
18:25 37.8 °F 35.1 °F 30.18 in Calm     90% 0.00 in 0.00 W/m2
18:30 37.7 °F 35.0 °F 30.18 in Calm     90% 0.00 in 0.00 W/m2
18:35 37.7 °F 35.0 °F 30.18 in Calm     90% 0.00 in 0.00 W/m2
18:40 37.6 °F 34.9 °F 30.17 in Calm     90% 0.00 in 0.00 W/m2
18:45 37.6 °F 34.9 °F 30.17 in Calm     90% 0.00 in 0.00 W/m2
18:50 37.5 °F 35.1 °F 30.17 in Calm     91% 0.00 in 0.00 W/m2
18:55 37.5 °F 35.1 °F 30.17 in Calm     91% 0.00 in 0.00 W/m2
19:00 37.4 °F 34.7 °F 30.17 in Calm     90% 0.00 in 0.00 W/m2
19:05 37.4 °F 34.7 °F 30.17 in Calm     90% 0.00 in 0.00 W/m2
19:10 37.3 °F 34.6 °F 30.16 in Calm     90% 0.00 in 0.00 W/m2
19:15 37.2 °F 34.5 °F 30.16 in Calm     90% 0.00 in 0.00 W/m2
19:20 37.2 °F 34.8 °F 30.16 in Calm     91% 0.00 in 0.00 W/m2
19:25 37.1 °F 34.7 °F 30.16 in Calm     91% 0.00 in 0.00 W/m2
19:30 37.1 °F 34.7 °F 30.15 in Calm     91% 0.00 in 0.00 W/m2
19:35 37.1 °F 34.7 °F 30.15 in Calm     91% 0.00 in 0.00 W/m2
19:40 37.0 °F 34.6 °F 30.16 in Calm     91% 0.00 in 0.00 W/m2
19:45 37.0 °F 34.6 °F 30.16 in Calm     91% 0.00 in 0.00 W/m2
19:50 36.9 °F 34.5 °F 30.16 in Calm     91% 0.00 in 0.00 W/m2
19:55 36.9 °F 34.5 °F 30.16 in Calm   8.0 mph 91% 0.00 in 0.00 W/m2
20:00 36.9 °F 34.5 °F 30.15 in Calm   1.0 mph 91% 0.00 in 0.00 W/m2
20:05 36.9 °F 34.5 °F 30.15 in Calm   1.0 mph 91% 0.00 in 0.00 W/m2
20:10 36.9 °F 34.2 °F 30.15 in Calm   1.0 mph 90% 0.00 in 0.00 W/m2
20:15 36.9 °F 34.2 °F 30.15 in Calm   1.0 mph 90% 0.00 in 0.00 W/m2
20:20 36.9 °F 34.2 °F 30.15 in Calm   1.0 mph 90% 0.00 in 0.00 W/m2
20:25 36.9 °F 34.2 °F 30.15 in Calm   1.0 mph 90% 0.00 in 0.00 W/m2
20:30 36.9 °F 34.2 °F 30.15 in Calm   1.0 mph 90% 0.00 in 0.00 W/m2
20:35 37.0 °F 34.3 °F 30.14 in Calm   1.0 mph 90% 0.00 in 0.00 W/m2
20:40 37.0 °F 34.3 °F 30.14 in Calm   1.0 mph 90% 0.00 in 0.00 W/m2
20:45 37.1 °F 34.4 °F 30.14 in Calm   1.0 mph 90% 0.00 in 0.00 W/m2
20:50 37.1 °F 34.4 °F 30.15 in Calm   1.0 mph 90% 0.00 in 0.00 W/m2
20:55 37.1 °F 34.4 °F 30.15 in Calm   1.0 mph 90% 0.00 in 0.00 W/m2
21:00 37.1 °F 34.4 °F 30.15 in Calm   1.0 mph 90% 0.00 in 0.00 W/m2
21:05 37.2 °F 34.3 °F 30.15 in Calm   1.0 mph 89% 0.00 in 0.00 W/m2
21:10 37.3 °F 34.4 °F 30.15 in Calm   1.0 mph 89% 0.00 in 0.00 W/m2
21:15 37.3 °F 34.4 °F 30.15 in Calm   1.0 mph 89% 0.00 in 0.00 W/m2
21:20 37.3 °F 34.4 °F 30.15 in Calm   1.0 mph 89% 0.00 in 0.00 W/m2
21:25 37.4 °F 34.5 °F 30.15 in Calm   1.0 mph 89% 0.00 in 0.00 W/m2
21:30 37.5 °F 34.6 °F 30.15 in Calm   1.0 mph 89% 0.00 in 0.00 W/m2
21:35 37.6 °F 34.7 °F 30.15 in Calm   1.0 mph 89% 0.00 in 0.00 W/m2
21:40 37.6 °F 34.9 °F 30.15 in Calm   1.0 mph 90% 0.00 in 0.00 W/m2
21:45 37.6 °F 34.7 °F 30.15 in Calm   1.0 mph 89% 0.00 in 0.00 W/m2
21:50 37.6 °F 34.9 °F 30.15 in Calm   1.0 mph 90% 0.00 in 0.00 W/m2
21:56 37.6 °F 34.9 °F 30.16 in Calm   1.0 mph 90% 0.00 in 0.00 W/m2
22:01 37.6 °F 34.9 °F 30.15 in Calm   1.0 mph 90% 0.00 in 0.00 W/m2
22:06 37.6 °F 34.9 °F 30.15 in Calm   1.0 mph 90% 0.00 in 0.00 W/m2
22:11 37.6 °F 34.9 °F 30.15 in Calm   1.0 mph 90% 0.00 in 0.00 W/m2
22:16 37.6 °F 34.7 °F 30.15 in Calm     89% 0.00 in 0.00 W/m2
22:21 37.6 °F 34.7 °F 30.15 in Calm   1.0 mph 89% 0.00 in 0.00 W/m2
22:26 37.7 °F 34.8 °F 30.15 in Calm   1.0 mph 89% 0.00 in 0.00 W/m2
22:32 37.7 °F 34.8 °F 30.16 in Calm   1.0 mph 89% 0.00 in 0.00 W/m2
22:36 37.7 °F 35.0 °F 30.16 in Calm   1.0 mph 90% 0.00 in 0.00 W/m2
22:41 37.8 °F 35.1 °F 30.16 in Calm     90% 0.00 in 0.00 W/m2
22:47 37.8 °F 35.1 °F 30.16 in Calm     90% 0.00 in 0.00 W/m2
22:52 37.9 °F 35.2 °F 30.16 in Calm   1.0 mph 90% 0.00 in 0.00 W/m2
22:57 37.9 °F 35.2 °F 30.16 in Calm   1.0 mph 90% 0.00 in 0.00 W/m2
23:02 37.9 °F 35.0 °F 30.17 in Calm   1.0 mph 89% 0.00 in 0.00 W/m2
23:07 37.9 °F 35.0 °F 30.17 in Calm   1.0 mph 89% 0.00 in 0.00 W/m2
23:12 38.0 °F 35.0 °F 30.17 in Calm     89% 0.00 in 0.00 W/m2
23:17 38.1 °F 35.2 °F 30.17 in Calm     89% 0.00 in 0.00 W/m2
23:22 38.1 °F 35.2 °F 30.17 in Calm     89% 0.00 in 0.00 W/m2
23:27 38.2 °F 35.2 °F 30.17 in Calm   1.0 mph 89% 0.00 in 0.00 W/m2
23:32 38.2 °F 35.2 °F 30.18 in Calm   1.0 mph 89% 0.00 in 0.00 W/m2
23:37 38.2 °F 35.5 °F 30.17 in Calm   1.0 mph 90% 0.00 in 0.00 W/m2
23:42 38.2 °F 35.5 °F 30.17 in Calm     90% 0.00 in 0.00 W/m2
23:47 38.2 °F 35.5 °F 30.18 in Calm     90% 0.00 in 0.00 W/m2
23:52 38.1 °F 35.4 °F 30.17 in Calm     90% 0.00 in 0.00 W/m2
23:57 38.0 °F 35.3 °F 30.16 in Calm     90% 0.00 in 0.00 W/m2
Foresthill Weather
 WU-history PHP script courtesy of   Juneau County Weather.
powered by Cumulus v1.9.3 (1059)
Ambient Weather VWS v14.00
Top Contact Website Map Copyright © 2007 - 2018 Foresthillweather.com Never base important decisions on this or any weather information obtained from the Internet